Time;durP1;ratioP1;P1;durP2;ratioP2;P2;SDS_P1;SDS_P2;PMS_P1;PMS_P2;Temp;Humidity;BMP_temperature;BMP_pressure;BME280_temperature;BME280_humidity;BME280_pressure;Samples;Min_cycle;Max_cycle;Signal;HPM_P1;HPM_P2
2023/05/24 00:01:56;;;;;;;1999.90;999.90;;;;;;;14.83;100.00;95436.00;5068002;28;20206;-64
2023/05/24 00:04:23;;;;;;;1999.90;999.90;;;;;;;14.77;100.00;95435.72;5050863;28;20221;-64
2023/05/24 00:06:49;;;;;;;1999.90;999.90;;;;;;;14.72;100.00;95435.47;5051563;28;20208;-64
2023/05/24 00:09:15;;;;;;;1999.90;999.90;;;;;;;14.78;100.00;95431.78;5051165;28;20197;-64
2023/05/24 00:11:40;;;;;;;1999.90;999.90;;;;;;;14.69;100.00;95423.34;5050719;28;20221;-64
2023/05/24 00:14:05;;;;;;;1999.90;999.90;;;;;;;14.70;100.00;95433.16;5067411;28;20244;-64
2023/05/24 00:16:31;;;;;;;1999.90;999.90;;;;;;;14.72;100.00;95421.72;5067265;28;20272;-64
2023/05/24 00:18:57;;;;;;;1999.90;999.90;;;;;;;14.72;100.00;95427.97;5050753;28;20198;-66
2023/05/24 00:21:23;;;;;;;1999.90;999.90;;;;;;;14.78;100.00;95420.78;5067253;28;20413;-64
2023/05/24 00:23:50;;;;;;;1999.90;999.90;;;;;;;14.68;100.00;95426.53;5067290;28;20201;-64
2023/05/24 00:26:16;;;;;;;1999.90;999.90;;;;;;;14.72;100.00;95422.47;5067324;28;20208;-63
2023/05/24 00:28:41;;;;;;;1999.90;999.90;;;;;;;14.66;100.00;95426.97;5050425;28;20193;-64
2023/05/24 00:31:07;;;;;;;1999.90;999.90;;;;;;;14.68;100.00;95421.78;5066924;28;20265;-63
2023/05/24 00:33:33;;;;;;;1999.90;999.90;;;;;;;14.73;100.00;95424.03;5067549;28;20243;-64
2023/05/24 00:35:58;;;;;;;1999.90;999.90;;;;;;;14.68;100.00;95413.53;5050733;28;20205;-63
2023/05/24 00:38:27;;;;;;;1999.90;999.90;;;;;;;14.62;100.00;95415.28;5066851;28;20201;-63
2023/05/24 00:40:56;;;;;;;1999.90;999.90;;;;;;;14.62;100.00;95415.28;5066773;28;20239;-62
2023/05/24 00:43:22;;;;;;;1999.90;999.90;;;;;;;14.54;100.00;95408.41;5067221;28;20232;-65
2023/05/24 00:46:11;;;;;;;1999.90;999.90;;;;;;;14.62;100.00;95412.53;5066746;28;20202;-64
2023/05/24 00:48:36;;;;;;;1999.90;999.90;;;;;;;14.44;100.00;95417.66;5066789;28;20201;-64
2023/05/24 00:51:01;;;;;;;1999.90;999.90;;;;;;;14.39;100.00;95409.91;5066781;28;20256;-64
2023/05/24 00:53:27;;;;;;;1999.90;999.90;;;;;;;14.41;100.00;95403.97;5050106;28;20256;-63
2023/05/24 00:55:53;;;;;;;1999.90;999.90;;;;;;;14.37;100.00;95412.31;5066662;28;20181;-63
2023/05/24 00:58:19;;;;;;;1999.90;999.90;;;;;;;14.35;100.00;95419.44;5050106;28;20209;-65
2023/05/24 01:00:48;;;;;;;1999.90;999.90;;;;;;;14.31;100.00;95414.00;5050464;28;20197;-64
2023/05/24 01:03:14;;;;;;;1999.90;999.90;;;;;;;14.20;100.00;95402.44;5066735;28;20239;-64
2023/05/24 01:05:39;;;;;;;1999.90;999.90;;;;;;;14.36;100.00;95405.28;5049066;28;20221;-63
2023/05/24 01:08:13;;;;;;;1999.90;999.90;;;;;;;14.33;100.00;95413.59;5066398;28;20204;-64
2023/05/24 01:11:03;;;;;;;1999.90;999.90;;;;;;;14.31;100.00;95402.28;5049733;28;20195;-64
2023/05/24 01:13:53;;;;;;;1999.90;999.90;;;;;;;14.19;100.00;95400.91;5066260;28;20290;-63
2023/05/24 01:16:26;;;;;;;1999.90;999.90;;;;;;;14.21;100.00;95392.25;5049697;28;20273;-64
2023/05/24 01:19:04;;;;;;;1999.90;999.90;;;;;;;14.20;100.00;95385.97;5066367;28;20201;-63
2023/05/24 01:21:38;;;;;;;1999.90;999.90;;;;;;;14.13;100.00;95383.38;5066641;28;20251;-63
2023/05/24 01:24:18;;;;;;;1999.90;999.90;;;;;;;14.21;100.00;95387.53;5049635;28;20235;-63
2023/05/24 01:27:13;;;;;;;1999.90;999.90;;;;;;;14.26;100.00;95389.81;5049603;28;20198;-63
2023/05/24 01:29:39;;;;;;;1999.90;999.90;;;;;;;14.31;100.00;95391.28;5049762;28;20242;-64
2023/05/24 01:32:05;;;;;;;1999.90;999.90;;;;;;;14.26;100.00;95389.03;5066627;28;20198;-62
2023/05/24 01:34:31;;;;;;;1999.90;999.90;;;;;;;14.23;100.00;95396.16;5066063;28;20204;-62
2023/05/24 01:36:56;;;;;;;1999.90;999.90;;;;;;;14.29;100.00;95386.22;5065908;28;20193;-61
2023/05/24 01:39:25;;;;;;;1999.90;999.90;;;;;;;14.33;100.00;95389.66;5049280;28;20236;-62
2023/05/24 01:42:44;;;;;;;1999.90;999.90;;;;;;;14.35;100.00;95389.97;5049161;28;20217;-63
2023/05/24 01:45:24;;;;;;;1999.90;999.90;;;;;;;13.91;100.00;95393.28;4969854;28;20252;-65
2023/05/24 01:48:05;;;;;;;1999.90;999.90;;;;;;;14.03;100.00;95392.66;4969723;28;20243;-63
2023/05/24 01:50:35;;;;;;;1999.90;999.90;;;;;;;14.08;100.00;95383.91;5023347;28;20202;-63
2023/05/24 01:53:07;;;;;;;1999.90;999.90;;;;;;;14.15;100.00;95383.75;5065545;28;20205;-63
2023/05/24 01:55:35;;;;;;;1999.90;999.90;;;;;;;14.07;100.00;95393.34;5065419;28;20213;-64
2023/05/24 01:58:03;;;;;;;1999.90;999.90;;;;;;;14.14;100.00;95387.69;5065486;28;20197;-64
2023/05/24 02:00:30;;;;;;;1999.90;999.90;;;;;;;13.98;100.00;95389.63;5065376;28;20190;-63
2023/05/24 02:02:56;;;;;;;1999.90;999.90;;;;;;;13.85;100.00;95386.75;5065314;28;20233;-64
2023/05/24 02:05:24;;;;;;;1999.90;999.90;;;;;;;13.92;100.00;95389.34;5065288;28;20234;-63
2023/05/24 02:07:50;;;;;;;1999.90;999.90;;;;;;;14.04;100.00;95377.72;5048875;28;20177;-63
2023/05/24 02:10:15;;;;;;;1999.90;999.90;;;;;;;13.90;100.00;95382.72;5065748;28;20221;-63
2023/05/24 02:12:41;;;;;;;1999.90;999.90;;;;;;;14.13;100.00;95380.63;5048941;28;20232;-62
2023/05/24 02:15:06;;;;;;;1999.90;999.90;;;;;;;14.29;100.00;95372.47;5065313;28;20237;-63
2023/05/24 02:17:32;;;;;;;1999.90;999.90;;;;;;;14.25;100.00;95377.28;5064918;28;20204;-63
2023/05/24 02:19:58;;;;;;;1999.90;999.90;;;;;;;14.25;100.00;95380.03;5064908;28;20198;-63
2023/05/24 02:22:24;;;;;;;1999.90;999.90;;;;;;;14.30;100.00;95379.50;5064867;28;20210;-63
2023/05/24 02:24:50;;;;;;;1999.90;999.90;;;;;;;14.35;100.00;95386.47;5065317;28;20202;-63
2023/05/24 02:27:15;;;;;;;1999.90;999.90;;;;;;;14.37;100.00;95384.06;5065030;28;20194;-62
2023/05/24 02:29:41;;;;;;;1999.90;999.90;;;;;;;14.32;100.00;95381.81;5048251;28;20194;-62
2023/05/24 02:32:06;;;;;;;1999.90;999.90;;;;;;;14.32;100.00;95388.09;5048213;28;20190;-62
2023/05/24 02:34:32;;;;;;;1999.90;999.90;;;;;;;14.26;100.00;95389.81;5048312;28;20213;-63
2023/05/24 02:36:57;;;;;;;1999.90;999.90;;;;;;;14.17;100.00;95386.81;5064446;28;20190;-63
2023/05/24 02:39:23;;;;;;;1999.90;999.90;;;;;;;14.11;100.00;95388.53;5047911;28;20261;-63
2023/05/24 02:41:48;;;;;;;1999.90;999.90;;;;;;;14.16;100.00;95384.53;5048301;28;20217;-63
2023/05/24 02:44:13;;;;;;;1999.90;999.90;;;;;;;13.93;100.00;95382.66;5047848;28;20197;-62
2023/05/24 02:46:39;;;;;;;1999.90;999.90;;;;;;;14.08;100.00;95377.63;5064500;28;20227;-64
2023/05/24 02:49:04;;;;;;;1999.90;999.90;;;;;;;14.18;100.00;95371.91;5064873;28;20216;-64
2023/05/24 02:51:31;;;;;;;1999.90;999.90;;;;;;;14.27;100.00;95374.09;5047810;28;20225;-63
2023/05/24 02:53:57;;;;;;;1999.90;999.90;;;;;;;14.24;100.00;95375.72;5047777;28;20205;-62
2023/05/24 02:56:22;;;;;;;1999.90;999.90;;;;;;;14.20;100.00;95379.72;5048061;28;20197;-62
2023/05/24 02:58:48;;;;;;;1999.90;999.90;;;;;;;14.05;100.00;95368.25;5047461;28;20242;-62
2023/05/24 03:01:13;;;;;;;1999.90;999.90;;;;;;;14.02;100.00;95366.38;5064628;28;20235;-62
2023/05/24 03:03:38;;;;;;;1999.90;999.90;;;;;;;14.07;100.00;95365.88;5064314;28;20201;-62
2023/05/24 03:06:07;;;;;;;1999.90;999.90;;;;;;;14.08;100.00;95363.88;5064223;28;20240;-63
2023/05/24 03:08:33;;;;;;;1999.90;999.90;;;;;;;14.05;100.00;95368.25;5064178;28;20269;-61
2023/05/24 03:10:58;;;;;;;1999.90;999.90;;;;;;;14.07;100.00;95365.88;5064514;28;20178;-60
2023/05/24 03:13:24;;;;;;;1999.90;999.90;;;;;;;14.06;100.00;95369.81;5047947;28;20193;-64
2023/05/24 03:15:49;;;;;;;1999.90;999.90;;;;;;;14.00;100.00;95368.00;5064301;28;20198;-64
2023/05/24 03:18:14;;;;;;;1999.90;999.90;;;;;;;14.01;100.00;95370.31;5064051;28;20204;-64
2023/05/24 03:20:40;;;;;;;1999.90;999.90;;;;;;;13.98;100.00;95370.41;5047230;28;20201;-64
2023/05/24 03:23:08;;;;;;;1999.90;999.90;;;;;;;13.95;100.00;95372.00;5063878;28;20256;-63
2023/05/24 03:25:33;;;;;;;1999.90;999.90;;;;;;;13.91;100.00;95374.06;5064016;28;20260;-63
2023/05/24 03:27:59;;;;;;;1999.90;999.90;;;;;;;13.73;100.00;95365.41;5063418;28;20197;-63
2023/05/24 03:30:25;;;;;;;1999.90;999.90;;;;;;;13.84;100.00;95373.44;5063682;28;20212;-61
2023/05/24 03:32:50;;;;;;;1999.90;999.90;;;;;;;13.89;100.00;95370.97;5064442;28;20198;-62
2023/05/24 03:35:15;;;;;;;1999.90;999.90;;;;;;;13.81;100.00;95368.81;5064317;28;20193;-61
2023/05/24 03:37:41;;;;;;;1999.90;999.90;;;;;;;13.89;100.00;95376.47;5063864;28;20256;-63
2023/05/24 03:40:07;;;;;;;1999.90;999.90;;;;;;;13.85;100.00;95375.00;5063733;28;20184;-63
2023/05/24 03:42:33;;;;;;;1999.90;999.90;;;;;;;13.82;100.00;95382.09;5064236;28;20228;-63
2023/05/24 03:44:58;;;;;;;1999.90;999.90;;;;;;;13.77;100.00;95384.56;5063729;28;20190;-63
2023/05/24 03:47:23;;;;;;;1999.90;999.90;;;;;;;13.85;100.00;95380.47;5063715;28;20246;-61
2023/05/24 03:49:49;;;;;;;1999.90;999.90;;;;;;;13.88;100.00;95385.88;5063895;28;20253;-60
2023/05/24 03:52:14;;;;;;;1999.90;999.90;;;;;;;13.94;100.00;95386.16;5063489;28;20206;-60
2023/05/24 03:54:39;;;;;;;1999.90;999.90;;;;;;;13.92;100.00;95386.59;5047289;28;20197;-61
2023/05/24 03:57:05;;;;;;;1999.90;999.90;;;;;;;13.92;100.00;95389.34;5047556;28;20201;-61
2023/05/24 03:59:31;;;;;;;1999.90;999.90;;;;;;;13.90;100.00;95393.69;5063446;28;20197;-61
2023/05/24 04:01:56;;;;;;;1999.90;999.90;;;;;;;13.98;100.00;95395.13;5063173;28;20213;-64
2023/05/24 04:04:21;;;;;;;1999.90;999.90;;;;;;;13.88;100.00;95399.59;5046929;28;20208;-64
2023/05/24 04:06:48;;;;;;;1999.90;999.90;;;;;;;13.89;100.00;95398.44;5063335;28;20284;-63
2023/05/24 04:09:14;;;;;;;1999.90;999.90;;;;;;;13.88;100.00;95396.09;5063591;28;20264;-64
2023/05/24 04:11:39;;;;;;;1999.90;999.90;;;;;;;13.87;100.00;95398.06;5046585;28;20189;-63
2023/05/24 04:14:05;;;;;;;1999.90;999.90;;;;;;;13.97;100.00;95394.34;5047322;28;20212;-63
2023/05/24 04:16:32;;;;;;;1999.90;999.90;;;;;;;13.97;100.00;95399.81;5063739;28;20197;-63
2023/05/24 04:18:59;;;;;;;1999.90;999.90;;;;;;;13.98;100.00;95401.38;5063552;28;20205;-63
2023/05/24 04:21:25;;;;;;;1999.90;999.90;;;;;;;13.61;100.00;95393.50;5063500;28;20286;-63
2023/05/24 04:23:51;;;;;;;1999.90;999.90;;;;;;;13.71;100.00;95402.72;5046776;28;20210;-63
2023/05/24 04:26:16;;;;;;;1999.90;999.90;;;;;;;13.76;100.00;95400.25;5046692;28;20201;-63
2023/05/24 04:28:41;;;;;;;1999.90;999.90;;;;;;;13.74;100.00;95402.66;5047116;28;20201;-64
2023/05/24 04:31:08;;;;;;;1999.90;999.90;;;;;;;13.77;100.00;95406.53;5063772;28;20201;-63
2023/05/24 04:33:34;;;;;;;1999.90;999.90;;;;;;;13.91;100.00;95407.00;5046700;28;20233;-63
2023/05/24 04:36:02;;;;;;;1999.90;999.90;;;;;;;14.01;100.00;95417.00;5046752;28;20202;-63
2023/05/24 04:38:28;;;;;;;1999.90;999.90;;;;;;;14.08;100.00;95416.84;5063002;28;20206;-66
2023/05/24 04:41:00;;;;;;;1999.90;999.90;;;;;;;14.08;100.00;95416.84;5065694;28;20173;-62
2023/05/24 04:43:26;;;;;;;1999.90;999.90;;;;;;;14.20;100.00;95413.44;5066797;28;20194;-62
2023/05/24 04:45:53;;;;;;;1999.90;999.90;;;;;;;14.28;100.00;95414.09;5050456;28;20283;-62
2023/05/24 04:48:20;;;;;;;1999.90;999.90;;;;;;;14.27;100.00;95416.06;5067236;28;20207;-62
2023/05/24 04:50:46;;;;;;;1999.90;999.90;;;;;;;14.37;100.00;95415.06;5067108;28;20197;-62
2023/05/24 04:53:12;;;;;;;1999.90;999.90;;;;;;;14.38;100.00;95419.34;5066645;28;20269;-62
2023/05/24 04:55:37;;;;;;;1999.90;999.90;;;;;;;14.41;100.00;95414.97;5066873;28;20198;-62
2023/05/24 04:58:03;;;;;;;1999.90;999.90;;;;;;;14.46;100.00;95428.22;5066701;28;20268;-63
2023/05/24 05:00:28;;;;;;;1999.90;999.90;;;;;;;14.34;100.00;95429.66;5066348;28;20201;-63
2023/05/24 05:02:54;;;;;;;1999.90;999.90;;;;;;;14.22;100.00;95433.06;5066748;28;20238;-62
2023/05/24 05:05:20;;;;;;;1999.90;999.90;;;;;;;14.19;100.00;95428.38;5066392;28;20201;-62
2023/05/24 05:07:46;;;;;;;1999.90;999.90;;;;;;;14.22;100.00;95427.56;5066515;28;20194;-61
2023/05/24 05:10:11;;;;;;;1999.90;999.90;;;;;;;14.12;100.00;95431.28;5049694;28;20176;-62
2023/05/24 05:12:37;;;;;;;1999.90;999.90;;;;;;;13.99;100.00;95419.38;5066865;28;20261;-63
2023/05/24 05:15:03;;;;;;;1999.90;999.90;;;;;;;13.84;100.00;95428.34;5066467;28;20201;-63
2023/05/24 05:17:28;;;;;;;1999.90;999.90;;;;;;;14.07;100.00;95420.81;5066070;28;20202;-62
2023/05/24 05:19:53;;;;;;;1999.90;999.90;;;;;;;14.20;100.00;95420.94;5065958;28;20205;-62
2023/05/24 05:22:19;;;;;;;1999.90;999.90;;;;;;;14.21;100.00;95431.50;5066142;28;20224;-62
2023/05/24 05:24:44;;;;;;;1999.90;999.90;;;;;;;14.26;100.00;95438.47;5066344;28;20201;-62
2023/05/24 05:27:10;;;;;;;1999.90;999.90;;;;;;;13.92;100.00;95441.53;5049271;28;20209;-62
2023/05/24 05:29:35;;;;;;;1999.90;999.90;;;;;;;14.05;100.00;95439.66;5065894;28;20205;-62
2023/05/24 05:32:00;;;;;;;1999.90;999.90;;;;;;;13.83;100.00;95444.03;5065985;28;20273;-59
2023/05/24 05:34:26;;;;;;;1999.90;999.90;;;;;;;13.73;100.00;95434.03;5065690;28;20198;-62
2023/05/24 05:36:51;;;;;;;1999.90;999.90;;;;;;;13.84;100.00;95434.59;5065861;28;20198;-61
2023/05/24 05:39:16;;;;;;;1999.90;999.90;;;;;;;13.79;100.00;95437.84;5065564;28;20236;-63
2023/05/24 05:41:43;;;;;;;1999.90;999.90;;;;;;;13.85;100.00;95446.38;5065464;28;20209;-60
2023/05/24 05:44:10;;;;;;;1999.90;999.90;;;;;;;13.96;100.00;95442.22;5065766;28;20224;-64
2023/05/24 05:46:35;;;;;;;1999.90;999.90;;;;;;;14.12;100.00;95436.78;5065865;28;20209;-64
2023/05/24 05:49:00;;;;;;;1999.90;999.90;;;;;;;14.20;100.00;95435.41;5065550;28;20197;-61
2023/05/24 05:51:26;;;;;;;1999.90;999.90;;;;;;;14.39;100.00;95437.38;5065183;28;20201;-62
2023/05/24 05:53:51;;;;;;;1999.90;999.90;;;;;;;14.35;100.00;95441.44;5065523;28;20277;-58
2023/05/24 05:56:16;;;;;;;1999.90;999.90;;;;;;;14.44;100.00;95445.13;5048553;28;20201;-59
2023/05/24 05:58:42;;;;;;;1999.90;999.90;;;;;;;14.56;100.00;95436.22;5065134;28;20205;-60
2023/05/24 06:01:07;;;;;;;1999.90;999.90;;;;;;;14.58;100.00;95428.31;5065418;28;20202;-61
2023/05/24 06:03:32;;;;;;;1999.90;999.90;;;;;;;14.94;100.00;95433.75;5064758;28;20233;-61
2023/05/24 06:05:58;;;;;;;1999.90;999.90;;;;;;;15.44;100.00;95432.09;5065405;28;20193;-61
2023/05/24 06:08:23;;;;;;;1999.90;999.90;;;;;;;15.65;100.00;95434.28;5065221;28;20236;-61
2023/05/24 06:10:48;;;;;;;1999.90;999.90;;;;;;;14.90;100.00;95444.81;5065247;28;20207;-61
2023/05/24 06:13:14;;;;;;;1999.90;999.90;;;;;;;14.83;100.00;95434.00;5064824;28;20178;-61
2023/05/24 06:15:39;;;;;;;1999.90;999.90;;;;;;;14.60;100.00;95436.91;5064834;28;20213;-59
2023/05/24 06:18:06;;;;;;;1999.90;999.90;;;;;;;15.25;100.00;95438.47;5065109;28;20206;-60
2023/05/24 06:20:31;;;;;;;1999.90;999.90;;;;;;;14.88;100.00;95441.75;5064907;28;20272;-61
2023/05/24 06:22:56;;;;;;;1999.90;999.90;;;;;;;15.12;100.00;95432.09;5047864;28;20264;-61
2023/05/24 06:25:23;;;;;;;1999.90;999.90;;;;;;;15.31;100.00;95431.25;5064777;28;20197;-59
2023/05/24 06:27:49;;;;;;;1999.90;999.90;;;;;;;15.35;100.00;95436.63;5064374;28;20197;-60
2023/05/24 06:30:15;;;;;;;1999.90;999.90;;;;;;;14.99;100.00;95442.25;5047978;28;20194;-60
2023/05/24 06:32:40;;;;;;;1999.90;999.90;;;;;;;15.41;100.00;95443.97;5047877;28;20208;-61
2023/05/24 06:35:06;;;;;;;1999.90;999.90;;;;;;;16.28;100.00;95437.19;5065301;28;20208;-61
2023/05/24 06:37:32;;;;;;;1999.90;999.90;;;;;;;16.42;100.00;95436.06;5064468;28;20194;-61
2023/05/24 06:39:57;;;;;;;1999.90;999.90;;;;;;;15.90;100.00;95433.59;5064998;28;20193;-60
2023/05/24 06:42:23;;;;;;;1999.90;999.90;;;;;;;16.14;100.00;95432.13;5048045;28;20209;-60
2023/05/24 06:44:48;;;;;;;1999.90;999.90;;;;;;;15.85;100.00;95431.38;5048144;28;20166;-59
2023/05/24 06:47:14;;;;;;;1999.90;999.90;;;;;;;15.83;100.00;95442.06;5064465;28;20197;-59
2023/05/24 06:49:39;;;;;;;1999.90;999.90;;;;;;;15.94;100.00;95437.81;5048107;28;20264;-63
2023/05/24 06:52:06;;;;;;;1999.90;999.90;;;;;;;17.32;100.00;95434.34;5064627;28;20197;-62
2023/05/24 06:54:31;;;;;;;1999.90;999.90;;;;;;;17.12;100.00;95433.84;5064512;28;20208;-61
2023/05/24 06:56:57;;;;;;;1999.90;999.90;;;;;;;19.35;100.00;95432.25;5064697;28;20641;-60
2023/05/24 06:59:23;;;;;;;1999.90;999.90;;;;;;;20.11;100.00;95435.72;5064593;28;20197;-58
2023/05/24 07:01:52;;;;;;;1999.90;999.90;;;;;;;19.66;100.00;95444.00;5047962;28;20213;-59
2023/05/24 07:04:17;;;;;;;1999.90;999.90;;;;;;;19.62;100.00;95446.16;5063327;28;20202;-58
2023/05/24 07:06:42;;;;;;;1999.90;999.90;;;;;;;19.84;100.00;95444.00;5047522;28;20205;-58
2023/05/24 07:09:09;;;;;;;1999.90;999.90;;;;;;;19.68;100.00;95444.31;5064115;28;20210;-59
2023/05/24 07:11:34;;;;;;;1999.90;999.90;;;;;;;21.45;100.00;95442.06;5064484;28;20201;-60
2023/05/24 07:14:00;;;;;;;1999.90;999.90;;;;;;;21.41;100.00;95438.69;5047266;28;20174;-61
2023/05/24 07:16:25;;;;;;;1999.90;999.90;;;;;;;22.12;100.00;95438.66;5064381;28;20201;-58
2023/05/24 07:18:50;;;;;;;1999.90;999.90;;;;;;;21.42;100.00;95443.00;5064331;28;20205;-60
2023/05/24 07:21:16;;;;;;;1999.90;999.90;;;;;;;21.51;100.00;95444.94;5063994;28;20214;-60
2023/05/24 07:23:41;;;;;;;1999.90;999.90;;;;;;;20.71;100.00;95450.38;5047228;28;20229;-61
2023/05/24 07:26:07;;;;;;;1999.90;999.90;;;;;;;19.30;100.00;95443.94;5063774;28;20237;-61
2023/05/24 07:28:36;;;;;;;1999.90;999.90;;;;;;;19.29;100.00;95447.94;5047226;28;20265;-59
2023/05/24 07:31:02;;;;;;;1999.90;999.90;;;;;;;19.15;100.00;95451.25;5047211;28;20210;-59
2023/05/24 07:33:27;;;;;;;1999.90;999.90;;;;;;;19.57;100.00;95451.53;5047102;28;20204;-61
2023/05/24 07:35:52;;;;;;;1999.90;999.90;;;;;;;19.62;100.00;95440.59;5064128;28;20202;-60
2023/05/24 07:38:18;;;;;;;1999.90;999.90;;;;;;;19.47;100.00;95442.44;5063641;28;20210;-66
2023/05/24 07:40:43;;;;;;;1999.90;999.90;;;;;;;19.90;100.00;95450.47;5047115;28;20201;-62
2023/05/24 07:43:09;;;;;;;1999.90;999.90;;;;;;;19.59;100.00;95447.06;5046494;28;20221;-61
2023/05/24 07:45:34;;;;;;;1999.90;999.90;;;;;;;19.01;100.00;95451.81;5064175;28;20227;-63
2023/05/24 07:48:00;;;;;;;1999.90;999.90;;;;;;;18.88;100.00;95451.16;5063604;28;20204;-63
2023/05/24 07:50:25;;;;;;;1999.90;999.90;;;;;;;19.21;100.00;95452.19;5047049;28;20221;-63
2023/05/24 07:52:51;;;;;;;1999.90;999.90;;;;;;;19.16;100.00;95453.56;5063604;28;20201;-63
2023/05/24 07:55:16;;;;;;;1999.90;999.90;;;;;;;18.83;100.00;95458.06;5063330;28;20193;-65
2023/05/24 07:57:42;;;;;;;1999.90;999.90;;;;;;;18.65;100.00;95449.66;5063261;28;20249;-66
2023/05/24 08:00:13;;;;;;;1999.90;999.90;;;;;;;18.90;100.00;95451.47;5063321;28;20197;-64
2023/05/24 08:02:42;;;;;;;1999.90;999.90;;;;;;;18.92;100.00;95451.78;5046972;28;20229;-62
2023/05/24 08:05:10;;;;;;;1999.90;999.90;;;;;;;19.00;100.00;95448.28;5046902;28;20202;-63
2023/05/24 08:07:36;;;;;;;1999.90;999.90;;;;;;;19.07;100.00;95459.06;5063109;28;20201;-64
2023/05/24 08:10:01;;;;;;;1999.90;999.90;;;;;;;19.13;100.00;95459.25;5063566;28;20244;-62
2023/05/24 08:12:29;;;;;;;1999.90;999.90;;;;;;;19.43;100.00;95458.44;5063253;28;20197;-58
2023/05/24 08:14:55;;;;;;;1999.90;999.90;;;;;;;19.71;100.00;95460.03;5065066;28;20232;-57
2023/05/24 08:17:20;;;;;;;1999.90;999.90;;;;;;;20.19;100.00;95442.50;5051166;28;20198;-58
2023/05/24 08:19:45;;;;;;;1999.90;999.90;;;;;;;20.60;100.00;95443.78;5067178;28;20197;-58
2023/05/24 08:22:11;;;;;;;1999.90;999.90;;;;;;;20.30;100.00;95451.09;5067519;28;20236;-57
2023/05/24 08:24:36;;;;;;;1999.90;999.90;;;;;;;20.57;100.00;95451.03;5067228;28;20202;-56
2023/05/24 08:27:03;;;;;;;1999.90;999.90;;;;;;;20.47;100.00;95451.53;5050568;28;20205;-56
2023/05/24 08:29:28;;;;;;;1999.90;999.90;;;;;;;20.59;100.00;95458.91;5067036;28;20212;-55
2023/05/24 08:31:54;;;;;;;1999.90;999.90;;;;;;;20.42;100.00;95454.91;5050619;28;20221;-56
2023/05/24 08:34:19;;;;;;;1999.90;999.90;;;;;;;20.71;100.00;95461.50;5067227;28;20232;-56
2023/05/24 08:36:45;;;;;;;1999.90;999.90;;;;;;;20.21;100.00;95462.19;5067110;28;20193;-56
2023/05/24 08:39:10;;;;;;;1999.90;999.90;;;;;;;19.70;100.00;95472.31;5067464;28;20205;-55
2023/05/24 08:41:38;;;;;;;1999.90;999.90;;;;;;;19.44;100.00;95466.28;5067049;28;20229;-58
2023/05/24 08:44:06;;;;;;;1999.90;999.90;;;;;;;19.21;100.00;95468.81;5067319;28;20166;-57
2023/05/24 08:46:36;;;;;;;1999.90;999.90;;;;;;;19.16;100.00;95466.66;5067492;28;20229;-56
2023/05/24 08:49:02;;;;;;;1999.90;999.90;;;;;;;19.13;100.00;95459.25;5066667;28;20217;-56
2023/05/24 08:51:29;;;;;;;1999.90;999.90;;;;;;;19.25;100.00;95461.94;5066793;28;20221;-57
2023/05/24 08:53:57;;;;;;;1999.90;999.90;;;;;;;19.15;100.00;95465.09;5066608;28;20273;-57
2023/05/24 08:56:25;;;;;;;1999.90;999.90;;;;;;;19.12;100.00;95466.00;5066651;28;20193;-56
2023/05/24 08:58:51;;;;;;;1999.90;999.90;;;;;;;19.15;100.00;95471.41;5066697;28;20197;-56
2023/05/24 09:01:17;;;;;;;1999.90;999.90;;;;;;;18.88;100.00;95476.06;5049728;28;20194;-55
2023/05/24 09:03:46;;;;;;;1999.90;999.90;;;;;;;18.54;100.00;95476.22;5066322;28;20231;-56
2023/05/24 09:06:15;;;;;;;1999.90;999.90;;;;;;;18.66;100.00;95480.88;5067143;28;20227;-56
2023/05/24 09:08:41;;;;;;;1999.90;999.90;;;;;;;18.40;100.00;95471.19;5066551;28;20185;-56
2023/05/24 09:11:07;;;;;;;1999.90;999.90;;;;;;;18.53;100.00;95469.13;5050279;28;20162;-56
2023/05/24 09:13:34;;;;;;;1999.90;999.90;;;;;;;18.73;100.00;95472.31;5066704;28;20193;-61
2023/05/24 09:16:00;;;;;;;1999.90;999.90;;;;;;;18.70;100.00;95475.97;5066481;28;20193;-60
2023/05/24 09:18:25;;;;;;;1999.90;999.90;;;;;;;17.77;100.00;95479.00;5066185;28;20194;-62
2023/05/24 09:20:51;;;;;;;1999.90;999.90;;;;;;;17.75;100.00;95486.94;5049552;28;20194;-61
2023/05/24 09:23:16;;;;;;;1999.90;999.90;;;;;;;17.27;100.00;95490.91;5066025;28;20239;-60
2023/05/24 09:25:46;;;;;;;1999.90;999.90;;;;;;;17.17;100.00;95486.50;5048947;28;20194;-64
2023/05/24 09:28:21;;;;;;;1999.90;999.90;;;;;;;17.21;100.00;95489.13;5065664;28;20217;-61
2023/05/24 09:31:01;;;;;;;1999.90;999.90;;;;;;;17.46;100.00;95480.81;5066467;28;20223;-61
2023/05/24 09:33:29;;;;;;;1999.90;999.90;;;;;;;17.52;100.00;95490.09;5066375;28;20248;-61
2023/05/24 09:35:59;;;;;;;1999.90;999.90;;;;;;;17.30;100.00;95492.75;5066343;28;20205;-61
2023/05/24 09:38:25;;;;;;;1999.90;999.90;;;;;;;16.67;100.00;95491.25;5066291;28;20264;-61
2023/05/24 09:41:07;;;;;;;1999.90;999.90;;;;;;;16.55;100.00;95494.72;5065935;28;20205;-61
2023/05/24 09:43:33;;;;;;;1999.90;999.90;;;;;;;16.96;100.00;95491.88;5049147;28;20208;-60
2023/05/24 09:46:03;;;;;;;1999.90;999.90;;;;;;;17.04;100.00;95501.50;5065389;28;20206;-61
2023/05/24 09:48:29;;;;;;;1999.90;999.90;;;;;;;17.16;100.00;95501.50;5066164;28;20190;-60
2023/05/24 09:51:06;;;;;;;1999.90;999.90;;;;;;;17.22;100.00;95496.22;5066048;28;20204;-60
2023/05/24 09:53:35;;;;;;;1999.90;999.90;;;;;;;17.44;100.00;95488.81;5066111;28;20251;-62
2023/05/24 09:56:07;;;;;;;1999.90;999.90;;;;;;;17.56;100.00;95488.75;5065239;28;20209;-61
2023/05/24 09:58:33;;;;;;;1999.90;999.90;;;;;;;17.44;100.00;95495.09;5066085;28;20193;-61
2023/05/24 10:01:06;;;;;;;1999.90;999.90;;;;;;;17.30;100.00;95505.78;5065345;28;20240;-62
2023/05/24 10:03:32;;;;;;;1999.90;999.90;;;;;;;17.10;100.00;95500.50;5065679;28;20224;-62
2023/05/24 10:05:59;;;;;;;1999.90;999.90;;;;;;;17.56;100.00;95507.34;5065562;28;20198;-62
2023/05/24 10:08:25;;;;;;;1999.90;999.90;;;;;;;17.28;100.00;95502.69;5065411;28;20197;-62
2023/05/24 10:10:51;;;;;;;1999.90;999.90;;;;;;;17.16;100.00;95506.25;5065103;28;20201;-62
2023/05/24 10:13:16;;;;;;;1999.90;999.90;;;;;;;17.06;100.00;95510.09;5065971;28;20205;-62
2023/05/24 10:15:43;;;;;;;1999.90;999.90;;;;;;;17.22;100.00;95494.19;5065133;28;20205;-63
2023/05/24 10:18:09;;;;;;;1999.90;999.90;;;;;;;17.18;100.00;95495.53;5065625;28;20255;-62
2023/05/24 10:20:35;;;;;;;1999.90;999.90;;;;;;;16.83;100.00;95499.41;5048376;28;20186;-62
2023/05/24 10:23:06;;;;;;;1999.90;999.90;;;;;;;16.91;100.00;95506.25;5048453;28;20234;-61
2023/05/24 10:25:33;;;;;;;1999.90;999.90;;;;;;;16.98;100.00;95508.78;5065418;28;20231;-62
2023/05/24 10:28:07;;;;;;;1999.90;999.90;;;;;;;16.90;100.00;95505.47;5064882;28;20189;-61
2023/05/24 10:30:51;;;;;;;1999.90;999.90;;;;;;;16.29;100.00;95516.69;5065216;28;20198;-61
2023/05/24 10:33:20;;;;;;;1999.90;999.90;;;;;;;15.88;100.00;95519.41;5048373;28;20189;-62
2023/05/24 10:35:45;;;;;;;1999.90;999.90;;;;;;;15.94;100.00;95512.19;5064363;28;20190;-63
2023/05/24 10:38:11;;;;;;;1999.90;999.90;;;;;;;16.13;100.00;95508.50;5048156;28;20194;-62
2023/05/24 10:40:41;;;;;;;1999.90;999.90;;;;;;;16.01;100.00;95506.47;5064682;28;20196;-63
2023/05/24 10:43:07;;;;;;;1999.90;999.90;;;;;;;16.03;100.00;95514.31;5064456;28;20277;-63
2023/05/24 10:45:36;;;;;;;1999.90;999.90;;;;;;;15.78;100.00;95509.44;5064498;28;20181;-62
2023/05/24 10:48:09;;;;;;;1999.90;999.90;;;;;;;16.02;100.00;95513.53;5064511;28;20237;-62